Time;durP1;ratioP1;P1;durP2;ratioP2;P2;SDS_P1;SDS_P2;PMS_P1;PMS_P2;Temp;Humidity;BMP_temperature;BMP_pressure;BME280_temperature;BME280_humidity;BME280_pressure;Samples;Min_cycle;Max_cycle;Signal;HPM_P1;HPM_P2
2021/11/27 00:00:42;;;;;;;1999.90;513.83;;;4.20;99.90;;;;;;6289048;22;20380;-69
2021/11/27 00:03:12;;;;;;;1999.90;503.93;;;4.10;99.90;;;;;;6251391;22;20733;-69
2021/11/27 00:05:41;;;;;;;1999.90;999.90;;;4.10;99.90;;;;;;6288689;22;20394;-69
2021/11/27 00:08:10;;;;;;;1999.90;999.90;;;4.10;99.90;;;;;;6288870;22;20450;-69
2021/11/27 00:10:41;;;;;;;1999.90;310.07;;;4.10;99.90;;;;;;6278903;22;20479;-68
2021/11/27 00:13:10;;;;;;;1999.90;754.43;;;4.10;99.90;;;;;;6289015;22;20384;-68
2021/11/27 00:15:40;;;;;;;1999.90;164.50;;;4.00;99.90;;;;;;6288573;22;20400;-68
2021/11/27 00:18:10;;;;;;;1999.90;712.90;;;4.00;99.90;;;;;;6277984;22;20451;-69
2021/11/27 00:20:46;;;;;;;1999.90;750.77;;;4.00;99.90;;;;;;6288942;22;20372;-68
2021/11/27 00:23:15;;;;;;;1999.90;692.00;;;4.00;99.90;;;;;;6288540;22;20389;-68
2021/11/27 00:25:44;;;;;;;1999.90;727.00;;;4.00;99.90;;;;;;6278555;22;20407;-68
2021/11/27 00:28:13;;;;;;;1999.90;447.80;;;4.00;99.90;;;;;;6250984;22;20508;-69
2021/11/27 00:30:44;;;;;;;1999.90;416.70;;;4.00;99.90;;;;;;6251039;22;20432;-68
2021/11/27 00:33:12;;;;;;;1999.90;365.13;;;4.00;99.90;;;;;;6251000;22;20416;-68
2021/11/27 00:35:41;;;;;;;1999.90;264.97;;;4.00;99.90;;;;;;6288705;22;20431;-68
2021/11/27 00:38:09;;;;;;;1999.90;362.40;;;3.90;99.90;;;;;;6251147;22;20416;-68
2021/11/27 00:40:40;;;;;;;1999.90;584.77;;;3.90;99.90;;;;;;6288962;22;20431;-69
2021/11/27 00:43:09;;;;;;;1999.90;515.53;;;4.00;99.90;;;;;;6251669;22;20415;-69
2021/11/27 00:45:39;;;;;;;1999.90;595.00;;;4.00;99.90;;;;;;6288912;22;20403;-68
2021/11/27 00:48:12;;;;;;;1999.90;999.90;;;3.90;99.90;;;;;;6288188;22;20403;-69
2021/11/27 00:50:45;;;;;;;1999.90;713.43;;;3.90;99.90;;;;;;6251023;22;20797;-69
2021/11/27 00:53:13;;;;;;;1999.90;807.03;;;3.90;99.90;;;;;;6250983;22;20412;-69
2021/11/27 00:55:42;;;;;;;1999.90;470.10;;;3.90;99.90;;;;;;6288164;22;20938;-69
2021/11/27 00:58:11;;;;;;;1999.90;999.90;;;3.90;99.90;;;;;;6251065;22;20414;-69
2021/11/27 01:00:47;;;;;;;1847.47;704.57;;;4.00;99.90;;;;;;6288381;22;20898;-69
2021/11/27 01:03:20;;;;;;;1999.90;427.60;;;4.00;99.90;;;;;;6288289;22;20377;-69
2021/11/27 01:05:50;;;;;;;1999.90;752.50;;;3.90;99.90;;;;;;6250756;22;20412;-69
2021/11/27 01:08:19;;;;;;;1999.90;244.13;;;3.90;99.90;;;;;;6250721;22;20448;-69
2021/11/27 01:10:53;;;;;;;1999.90;716.77;;;4.00;99.90;;;;;;6278119;22;20391;-69
2021/11/27 01:13:21;;;;;;;1815.77;203.13;;;3.90;99.90;;;;;;6288363;22;20379;-69
2021/11/27 01:15:50;;;;;;;1999.90;693.67;;;4.00;99.90;;;;;;6250618;22;20896;-69
2021/11/27 01:18:20;;;;;;;1999.90;745.37;;;3.90;99.90;;;;;;6287908;22;20750;-68
2021/11/27 01:20:53;;;;;;;1999.90;434.40;;;3.90;99.90;;;;;;6287822;22;20428;-69
2021/11/27 01:23:22;;;;;;;38.90;35.63;;;3.90;99.90;;;;;;6287199;22;20401;-69
2021/11/27 01:25:51;;;;;;;461.43;161.70;;;4.00;99.90;;;;;;6288103;22;20196;-69
2021/11/27 01:28:23;;;;;;;1999.90;726.07;;;4.00;99.90;;;;;;6288324;22;20395;-68
2021/11/27 01:30:56;;;;;;;1999.90;733.60;;;4.00;99.90;;;;;;6251646;22;20405;-69
2021/11/27 01:33:28;;;;;;;1999.90;514.50;;;4.00;99.90;;;;;;6250714;22;20854;-69
2021/11/27 01:35:56;;;;;;;1703.80;684.43;;;4.00;99.90;;;;;;6288228;22;20416;-69
2021/11/27 01:38:25;;;;;;;1954.53;385.20;;;4.00;99.90;;;;;;6288609;22;20408;-69
2021/11/27 01:40:54;;;;;;;1999.90;254.50;;;4.00;99.90;;;;;;6250267;22;20462;-69
2021/11/27 01:43:24;;;;;;;1999.90;254.50;;;4.00;99.90;;;;;;6250390;22;20439;-69
2021/11/27 01:45:54;;;;;;;1999.90;451.10;;;4.00;99.90;;;;;;6250245;22;20423;-69
2021/11/27 01:48:23;;;;;;;1852.63;220.43;;;4.00;99.90;;;;;;6250209;22;20433;-68
2021/11/27 01:50:56;;;;;;;1728.13;407.17;;;4.00;99.90;;;;;;6287643;22;20406;-68
2021/11/27 01:53:29;;;;;;;1826.67;239.70;;;4.00;99.90;;;;;;6250312;22;20874;-69
2021/11/27 01:56:03;;;;;;;1967.27;203.90;;;4.00;99.90;;;;;;6250233;22;20902;-69
2021/11/27 01:58:32;;;;;;;1341.23;212.17;;;4.00;99.90;;;;;;6250171;22;20488;-69
2021/11/27 02:01:04;;;;;;;1986.90;711.43;;;4.00;99.90;;;;;;6250025;22;20430;-68
2021/11/27 02:03:33;;;;;;;1999.90;555.63;;;4.00;99.90;;;;;;6250074;22;20401;-69
2021/11/27 02:06:14;;;;;;;1999.90;735.87;;;4.00;99.90;;;;;;6250198;22;20409;-69
2021/11/27 02:08:47;;;;;;;1999.90;244.97;;;4.00;99.90;;;;;;6250059;22;20436;-69
2021/11/27 02:11:24;;;;;;;1999.90;486.33;;;4.00;99.90;;;;;;6250439;22;20404;-69
2021/11/27 02:13:56;;;;;;;1984.10;426.50;;;4.00;99.90;;;;;;6250100;22;20404;-69
2021/11/27 02:16:24;;;;;;;1530.00;220.50;;;4.00;99.90;;;;;;6251034;22;20766;-69
2021/11/27 02:18:53;;;;;;;1999.90;999.90;;;4.00;99.90;;;;;;6249886;22;20451;-69
2021/11/27 02:21:24;;;;;;;1999.90;201.27;;;4.10;99.90;;;;;;6250155;22;20927;-69
2021/11/27 02:23:54;;;;;;;1999.90;596.77;;;4.10;99.90;;;;;;6250043;22;20503;-69
2021/11/27 02:26:26;;;;;;;1999.90;831.77;;;4.00;99.90;;;;;;6249909;22;20935;-69
2021/11/27 02:29:00;;;;;;;1313.50;413.63;;;4.10;99.90;;;;;;6249818;22;20431;-69
2021/11/27 02:31:29;;;;;;;1439.00;194.63;;;4.10;99.90;;;;;;6249887;22;20455;-69
2021/11/27 02:33:58;;;;;;;1563.93;249.70;;;4.10;99.90;;;;;;6249807;22;20414;-69
2021/11/27 02:36:29;;;;;;;1999.90;632.00;;;4.10;99.90;;;;;;6249852;22;20421;-69
2021/11/27 02:39:00;;;;;;;1999.90;568.30;;;4.10;99.90;;;;;;6250467;22;20436;-69
2021/11/27 02:41:28;;;;;;;1999.90;743.17;;;4.10;99.90;;;;;;6249819;22;20432;-68
2021/11/27 02:43:57;;;;;;;1999.90;431.87;;;4.10;99.90;;;;;;6287457;22;20402;-69
2021/11/27 02:46:25;;;;;;;1999.90;194.53;;;4.10;99.90;;;;;;6249809;22;20432;-69
2021/11/27 02:48:55;;;;;;;1999.90;999.90;;;4.10;99.90;;;;;;6249743;22;20428;-69
2021/11/27 02:51:24;;;;;;;1996.17;443.77;;;4.10;99.90;;;;;;6249665;22;20732;-69
2021/11/27 02:53:54;;;;;;;1999.90;155.57;;;4.10;99.90;;;;;;6249637;22;20413;-69
2021/11/27 02:56:22;;;;;;;1999.90;999.90;;;4.10;99.90;;;;;;6287023;22;20724;-69
2021/11/27 02:58:50;;;;;;;1999.90;709.40;;;4.10;99.90;;;;;;6287475;22;20416;-69
2021/11/27 03:01:19;;;;;;;1799.33;710.50;;;4.10;99.90;;;;;;6249508;22;20446;-69
2021/11/27 03:03:48;;;;;;;1999.90;999.90;;;4.10;99.90;;;;;;6249484;22;20408;-68
2021/11/27 03:06:17;;;;;;;1999.90;999.90;;;4.10;99.90;;;;;;6249543;22;20420;-69
2021/11/27 03:08:45;;;;;;;1999.90;999.90;;;4.10;99.90;;;;;;6249518;22;20432;-69
2021/11/27 03:11:15;;;;;;;1950.97;432.53;;;4.10;99.90;;;;;;6287462;22;20397;-69
2021/11/27 03:13:44;;;;;;;1807.00;690.63;;;4.10;99.90;;;;;;6249680;22;20480;-69
2021/11/27 03:16:15;;;;;;;1999.90;784.97;;;4.10;99.90;;;;;;6249621;22;20408;-69
2021/11/27 03:18:44;;;;;;;1980.77;148.97;;;4.10;99.90;;;;;;6249225;22;20440;-69
2021/11/27 03:21:12;;;;;;;1999.90;192.60;;;4.10;99.90;;;;;;6249454;22;20481;-69
2021/11/27 03:23:41;;;;;;;1999.90;443.03;;;4.10;99.90;;;;;;6249578;22;20748;-69
2021/11/27 03:26:09;;;;;;;1999.90;353.30;;;4.10;99.90;;;;;;6249536;22;20494;-68
2021/11/27 03:28:38;;;;;;;1999.90;830.23;;;4.10;99.90;;;;;;6251515;22;20433;-68
2021/11/27 03:31:06;;;;;;;1999.90;409.17;;;4.10;99.90;;;;;;6251597;22;20759;-69
2021/11/27 03:33:35;;;;;;;1977.87;165.60;;;4.10;99.90;;;;;;6251619;22;20416;-68
2021/11/27 03:36:05;;;;;;;1999.90;557.63;;;4.10;99.90;;;;;;6251486;22;20413;-69
2021/11/27 03:38:35;;;;;;;1999.90;999.90;;;4.10;99.90;;;;;;6251480;22;20822;-69
2021/11/27 03:41:07;;;;;;;1999.90;868.17;;;4.10;99.90;;;;;;6251420;22;20445;-69
2021/11/27 03:43:38;;;;;;;1999.90;289.30;;;4.10;99.90;;;;;;6251449;22;20431;-68
2021/11/27 03:46:06;;;;;;;1952.77;449.50;;;4.10;99.90;;;;;;6251522;22;20407;-69
2021/11/27 03:48:37;;;;;;;1999.90;778.50;;;4.10;99.90;;;;;;6251679;22;20465;-69
2021/11/27 03:51:14;;;;;;;1999.90;188.80;;;4.10;99.90;;;;;;6251533;22;20400;-69
2021/11/27 03:53:44;;;;;;;1999.90;376.97;;;4.10;99.90;;;;;;6251712;22;20906;-69
2021/11/27 03:56:21;;;;;;;1277.13;114.17;;;4.10;99.90;;;;;;6251499;22;20410;-69
2021/11/27 03:58:54;;;;;;;1999.90;592.40;;;4.10;99.90;;;;;;6251323;22;20432;-69
2021/11/27 04:01:25;;;;;;;1999.90;738.73;;;4.10;99.90;;;;;;6251360;22;20459;-69
2021/11/27 04:03:56;;;;;;;1999.90;999.90;;;4.10;99.90;;;;;;6252318;22;20411;-69
2021/11/27 04:06:27;;;;;;;1999.90;694.53;;;4.10;99.90;;;;;;6251317;22;20974;-69
2021/11/27 04:08:59;;;;;;;1999.90;766.20;;;4.10;99.90;;;;;;6251271;22;20743;-69
2021/11/27 04:11:30;;;;;;;1999.90;724.67;;;4.10;99.90;;;;;;6251958;22;20769;-69
2021/11/27 04:14:04;;;;;;;1268.00;392.90;;;4.10;99.90;;;;;;6251539;22;20410;-68
2021/11/27 04:16:37;;;;;;;1999.90;457.13;;;4.10;99.90;;;;;;6251915;22;20778;-69
2021/11/27 04:19:06;;;;;;;1948.80;444.23;;;4.10;99.90;;;;;;6251320;22;20448;-69
2021/11/27 04:21:34;;;;;;;1999.90;472.00;;;4.10;99.90;;;;;;6251016;22;20815;-69
2021/11/27 04:24:03;;;;;;;1999.90;188.13;;;4.10;99.90;;;;;;6251085;22;20404;-69
2021/11/27 04:26:31;;;;;;;1999.90;218.70;;;4.10;99.90;;;;;;6289366;22;20396;-69
2021/11/27 04:28:59;;;;;;;1999.90;999.90;;;4.10;99.90;;;;;;6250925;22;20429;-69
2021/11/27 04:31:30;;;;;;;1999.90;659.27;;;4.10;99.90;;;;;;6250981;22;20465;-69
2021/11/27 04:33:58;;;;;;;1999.90;729.07;;;4.10;99.90;;;;;;6251034;22;20416;-69
2021/11/27 04:36:27;;;;;;;1999.90;999.90;;;4.10;99.90;;;;;;6251212;22;20498;-69
2021/11/27 04:38:55;;;;;;;1999.90;999.90;;;4.10;99.90;;;;;;6251955;22;20432;-69
2021/11/27 04:41:24;;;;;;;1999.90;673.23;;;4.10;99.90;;;;;;6250845;22;20527;-69
2021/11/27 04:43:54;;;;;;;1999.90;717.57;;;4.10;99.90;;;;;;6250976;22;20406;-69
2021/11/27 04:46:22;;;;;;;1999.90;760.33;;;4.10;99.90;;;;;;6250856;22;20477;-69
2021/11/27 04:48:52;;;;;;;1999.90;233.77;;;4.10;99.90;;;;;;6250684;22;20429;-69
2021/11/27 04:51:20;;;;;;;1999.90;713.33;;;4.10;99.90;;;;;;6250878;22;20427;-69
2021/11/27 04:53:49;;;;;;;1999.90;718.37;;;4.10;99.90;;;;;;6250891;22;20444;-69
2021/11/27 04:56:18;;;;;;;1999.90;999.90;;;4.10;99.90;;;;;;6250773;22;20904;-69
2021/11/27 04:58:46;;;;;;;1999.90;999.90;;;4.10;99.90;;;;;;6250849;22;20432;-69
2021/11/27 05:01:15;;;;;;;1999.90;256.63;;;4.20;99.90;;;;;;6250545;22;20433;-69
2021/11/27 05:03:57;;;;;;;1999.90;721.17;;;4.10;99.90;;;;;;6251954;22;20414;-69
2021/11/27 05:06:25;;;;;;;1989.70;706.23;;;4.10;99.90;;;;;;6250616;22;20439;-69
2021/11/27 05:08:55;;;;;;;1999.90;776.87;;;4.20;99.90;;;;;;6250683;22;20464;-69
2021/11/27 05:11:23;;;;;;;1937.63;700.53;;;4.20;99.90;;;;;;6250571;22;20553;-69
2021/11/27 05:13:53;;;;;;;1999.90;649.07;;;4.20;99.90;;;;;;6250636;22;20443;-69
2021/11/27 05:16:23;;;;;;;1999.90;999.90;;;4.20;99.90;;;;;;6250650;22;20454;-69
2021/11/27 05:18:53;;;;;;;1999.90;704.33;;;4.20;99.90;;;;;;6250710;22;20455;-69
2021/11/27 05:21:44;;;;;;;1999.90;313.90;;;4.20;99.90;;;;;;6250851;22;20520;-68
2021/11/27 05:24:12;;;;;;;1999.90;724.37;;;4.20;99.90;;;;;;6250547;22;20466;-69
2021/11/27 05:27:01;;;;;;;1999.90;404.47;;;4.20;99.90;;;;;;6277064;22;20467;-69
2021/11/27 05:29:34;;;;;;;1999.90;739.13;;;4.20;99.90;;;;;;6288186;22;20420;-69
2021/11/27 05:32:21;;;;;;;1999.90;535.23;;;4.20;99.90;;;;;;6250476;22;20415;-69
2021/11/27 05:34:52;;;;;;;1321.13;177.73;;;4.20;99.90;;;;;;6250784;22;20420;-69
2021/11/27 05:37:22;;;;;;;1999.90;700.60;;;4.20;99.90;;;;;;6250700;22;20427;-69
2021/11/27 05:39:51;;;;;;;1999.90;999.90;;;4.20;99.90;;;;;;6287798;22;20456;-68
2021/11/27 05:42:20;;;;;;;1999.90;999.90;;;4.20;99.90;;;;;;6288286;22;20428;-69
2021/11/27 05:44:51;;;;;;;1999.90;692.17;;;4.20;99.90;;;;;;6250419;22;20896;-68
2021/11/27 05:47:23;;;;;;;1999.90;732.97;;;4.20;99.90;;;;;;6250312;22;20788;-69
2021/11/27 05:49:53;;;;;;;1999.90;782.90;;;4.20;99.90;;;;;;6249930;22;20433;-69
2021/11/27 05:52:36;;;;;;;1999.90;180.90;;;4.20;99.90;;;;;;6250331;22;20459;-68
2021/11/27 05:55:06;;;;;;;1999.90;654.77;;;4.20;99.90;;;;;;6287967;22;20435;-69
2021/11/27 05:57:34;;;;;;;1999.90;698.90;;;4.20;99.90;;;;;;6287603;22;20397;-69
2021/11/27 06:00:03;;;;;;;1999.90;999.90;;;4.20;99.90;;;;;;6287463;22;20412;-69
2021/11/27 06:02:39;;;;;;;1999.90;729.57;;;4.20;99.90;;;;;;6277251;22;20927;-69
2021/11/27 06:05:08;;;;;;;1999.90;530.53;;;4.20;99.90;;;;;;6287584;22;20488;-69
2021/11/27 06:07:37;;;;;;;1999.90;999.90;;;4.20;99.90;;;;;;6287887;22;20891;-69
2021/11/27 06:10:07;;;;;;;1999.90;751.57;;;4.20;99.90;;;;;;6287527;22;20504;-69
2021/11/27 06:12:35;;;;;;;1999.90;739.87;;;4.20;99.90;;;;;;6287431;22;20874;-69
2021/11/27 06:15:05;;;;;;;1999.90;999.90;;;4.20;99.90;;;;;;6287503;22;20449;-69
2021/11/27 06:17:34;;;;;;;1999.90;764.03;;;4.20;99.90;;;;;;6249908;22;20437;-69
2021/11/27 06:20:03;;;;;;;1962.33;703.83;;;4.20;99.90;;;;;;6249860;22;20950;-69
2021/11/27 06:22:31;;;;;;;1999.90;823.63;;;4.20;99.90;;;;;;6249820;22;20520;-69
2021/11/27 06:25:20;;;;;;;1999.90;475.80;;;4.20;99.90;;;;;;6288057;22;20404;-69
2021/11/27 06:27:49;;;;;;;1999.90;999.90;;;4.20;99.90;;;;;;6249938;22;20416;-69
2021/11/27 06:30:17;;;;;;;1999.90;999.90;;;4.20;99.90;;;;;;6287194;22;20415;-69
2021/11/27 06:32:45;;;;;;;1999.90;738.83;;;4.20;99.90;;;;;;6287909;22;20716;-69
2021/11/27 06:35:14;;;;;;;1977.93;126.10;;;4.20;99.90;;;;;;6287922;22;20901;-69
2021/11/27 06:37:42;;;;;;;1517.50;406.37;;;4.20;99.90;;;;;;6249670;22;20409;-69
2021/11/27 06:40:13;;;;;;;1999.90;733.17;;;4.20;99.90;;;;;;6287061;22;20422;-69
2021/11/27 06:43:13;;;;;;;1999.90;729.80;;;4.20;99.90;;;;;;6250401;22;20428;-69
2021/11/27 06:46:00;;;;;;;1999.90;665.27;;;4.20;99.90;;;;;;6249793;22;20472;-69
2021/11/27 06:48:30;;;;;;;1999.90;999.90;;;4.20;99.90;;;;;;6287340;22;20420;-69
2021/11/27 06:50:58;;;;;;;1999.90;595.83;;;4.20;99.90;;;;;;6289964;22;20401;-69
2021/11/27 06:53:27;;;;;;;1999.90;999.90;;;4.20;99.90;;;;;;6290876;22;20467;-69
2021/11/27 06:55:56;;;;;;;1999.90;804.37;;;4.20;99.90;;;;;;6253153;22;20397;-69
2021/11/27 06:58:27;;;;;;;1632.43;423.90;;;4.20;99.90;;;;;;6253817;22;20915;-69
2021/11/27 07:01:15;;;;;;;1999.90;837.67;;;4.20;99.90;;;;;;6253250;22;20401;-69
2021/11/27 07:04:19;;;;;;;1999.90;385.63;;;4.20;99.90;;;;;;6279851;22;20405;-69
2021/11/27 07:07:26;;;;;;;1999.90;206.97;;;4.20;99.90;;;;;;6165869;23;20412;-69
2021/11/27 07:10:12;;;;;;;1999.90;740.77;;;4.20;99.90;;;;;;6153881;23;20866;-69
2021/11/27 07:12:51;;;;;;;1999.90;176.73;;;4.20;99.90;;;;;;6211693;22;20454;-69
2021/11/27 07:15:20;;;;;;;1999.90;747.33;;;4.20;99.90;;;;;;6249682;22;20416;-69
2021/11/27 07:17:48;;;;;;;1999.90;780.27;;;4.20;99.90;;;;;;6286805;22;20500;-69
2021/11/27 07:20:17;;;;;;;1732.23;689.20;;;4.20;99.90;;;;;;6286926;22;20926;-69
2021/11/27 07:22:45;;;;;;;1778.33;697.57;;;4.20;99.90;;;;;;6249541;22;20728;-69
2021/11/27 07:25:13;;;;;;;1999.90;724.63;;;4.20;99.90;;;;;;6250483;22;20420;-69
2021/11/27 07:28:00;;;;;;;1999.90;769.60;;;4.20;99.90;;;;;;6276687;22;20412;-69
2021/11/27 07:30:31;;;;;;;1999.90;999.90;;;4.30;99.90;;;;;;6249543;22;20412;-69
2021/11/27 07:32:59;;;;;;;1999.90;999.90;;;4.20;99.90;;;;;;6250472;22;20487;-69
2021/11/27 07:35:27;;;;;;;1999.90;801.03;;;4.30;99.90;;;;;;6249196;22;20442;-68
2021/11/27 07:37:56;;;;;;;1999.90;999.90;;;4.30;99.90;;;;;;6287216;22;20876;-69
2021/11/27 07:40:25;;;;;;;1999.90;834.87;;;4.30;99.90;;;;;;6286694;22;20420;-69
2021/11/27 07:42:53;;;;;;;1999.90;999.90;;;4.30;99.90;;;;;;6286664;22;20421;-68
2021/11/27 07:45:35;;;;;;;1999.90;565.87;;;4.30;99.90;;;;;;6287534;22;20385;-68
2021/11/27 07:48:23;;;;;;;1999.90;503.13;;;4.30;99.90;;;;;;6276409;22;20407;-69
2021/11/27 07:51:10;;;;;;;1999.90;780.20;;;4.30;99.90;;;;;;6276938;22;20383;-69
2021/11/27 07:54:00;;;;;;;1999.90;463.47;;;4.30;99.90;;;;;;6249488;22;20401;-69
2021/11/27 07:56:28;;;;;;;1999.90;780.07;;;4.30;99.90;;;;;;6287383;22;20480;-69
2021/11/27 07:58:56;;;;;;;1999.90;447.63;;;4.30;99.90;;;;;;6286635;22;20413;-68
2021/11/27 08:01:25;;;;;;;1999.90;999.90;;;4.30;99.90;;;;;;6286764;22;20400;-68
2021/11/27 08:03:54;;;;;;;1999.90;999.90;;;4.30;99.90;;;;;;6287264;22;20424;-68
2021/11/27 08:06:22;;;;;;;1999.90;999.90;;;4.30;99.90;;;;;;6286680;22;20392;-69
2021/11/27 08:08:50;;;;;;;1999.90;670.63;;;4.30;99.90;;;;;;6249217;22;20441;-68
2021/11/27 08:11:18;;;;;;;1999.90;999.90;;;4.30;99.90;;;;;;6276823;22;20426;-69
2021/11/27 08:13:48;;;;;;;1379.60;126.40;;;4.40;99.90;;;;;;6288032;22;20410;-69
2021/11/27 08:16:16;;;;;;;1999.90;999.90;;;4.30;99.90;;;;;;6288972;22;20471;-69
2021/11/27 08:18:46;;;;;;;1999.90;999.90;;;4.30;99.90;;;;;;6277899;22;20938;-69
2021/11/27 08:21:14;;;;;;;1999.90;999.90;;;4.30;99.90;;;;;;6288898;22;20400;-68
2021/11/27 08:23:51;;;;;;;1999.90;999.90;;;4.40;99.90;;;;;;6251070;22;20432;-68
2021/11/27 08:26:19;;;;;;;1999.90;666.63;;;4.40;99.90;;;;;;6288793;22;20389;-68
2021/11/27 08:28:48;;;;;;;1999.90;999.90;;;4.40;99.90;;;;;;6278321;22;20452;-68
2021/11/27 08:31:17;;;;;;;1999.90;999.90;;;4.40;99.90;;;;;;6288999;22;20459;-68
2021/11/27 08:33:46;;;;;;;1999.90;999.90;;;4.40;99.90;;;;;;6288341;22;20431;-68
2021/11/27 08:36:14;;;;;;;1999.90;893.47;;;4.40;99.90;;;;;;6288442;22;20388;-68
2021/11/27 08:38:43;;;;;;;1999.90;703.83;;;4.40;99.90;;;;;;6288332;22;20920;-68
2021/11/27 08:41:33;;;;;;;1999.90;736.73;;;4.40;99.90;;;;;;6250894;22;20437;-68
2021/11/27 08:44:14;;;;;;;1999.90;789.97;;;4.40;99.90;;;;;;6250500;22;20468;-68
2021/11/27 08:46:42;;;;;;;1999.90;807.90;;;4.40;99.90;;;;;;6250992;22;20408;-68
2021/11/27 08:49:12;;;;;;;1999.90;786.77;;;4.50;99.90;;;;;;6288266;22;20429;-68
2021/11/27 08:51:41;;;;;;;1999.90;614.13;;;4.40;99.90;;;;;;6288939;22;20389;-68
2021/11/27 08:54:10;;;;;;;1999.90;585.90;;;4.50;99.90;;;;;;6250758;22;20811;-68
2021/11/27 08:56:41;;;;;;;1999.90;999.90;;;4.50;99.90;;;;;;6288914;22;20377;-69
2021/11/27 08:59:10;;;;;;;1999.90;999.90;;;4.50;99.90;;;;;;6288476;22;20417;-68
2021/11/27 09:01:38;;;;;;;1999.90;732.60;;;4.50;99.90;;;;;;6288240;22;20393;-68
2021/11/27 09:04:07;;;;;;;1999.90;771.97;;;4.50;99.90;;;;;;6288334;22;20514;-68
2021/11/27 09:06:37;;;;;;;1999.90;999.90;;;4.50;99.90;;;;;;6288790;22;20393;-68
2021/11/27 09:09:05;;;;;;;1999.90;699.73;;;4.50;99.90;;;;;;6288178;22;20516;-68
2021/11/27 09:11:35;;;;;;;1891.50;585.60;;;4.50;99.90;;;;;;6288154;22;20420;-68
2021/11/27 09:14:04;;;;;;;1999.90;999.90;;;4.50;99.90;;;;;;6288021;22;20392;-68
2021/11/27 09:16:32;;;;;;;1999.90;800.03;;;4.60;99.90;;;;;;6286221;22;20425;-68
2021/11/27 09:19:03;;;;;;;1999.90;665.97;;;4.60;99.90;;;;;;6277461;22;20433;-68
2021/11/27 09:21:32;;;;;;;1999.90;716.60;;;4.60;99.90;;;;;;6288649;22;20396;-68
2021/11/27 09:24:03;;;;;;;1999.90;686.13;;;4.70;99.90;;;;;;6287387;22;20494;-68
2021/11/27 09:26:31;;;;;;;1999.90;999.90;;;4.70;99.90;;;;;;6250506;22;20801;-69
2021/11/27 09:28:59;;;;;;;1377.77;414.10;;;4.70;99.90;;;;;;6288218;22;20482;-68
2021/11/27 09:31:28;;;;;;;1320.67;400.53;;;4.80;99.90;;;;;;6287805;22;20428;-68
2021/11/27 09:33:56;;;;;;;1999.90;612.40;;;4.90;99.90;;;;;;6287722;22;20499;-68
2021/11/27 09:36:24;;;;;;;1526.07;403.93;;;4.90;99.90;;;;;;6288154;22;20399;-68
2021/11/27 09:38:52;;;;;;;1651.07;460.23;;;4.90;99.90;;;;;;6277743;22;20417;-68
2021/11/27 09:41:26;;;;;;;1999.90;527.83;;;5.00;99.90;;;;;;6288404;22;20903;-68
2021/11/27 09:43:56;;;;;;;1999.90;793.03;;;5.00;99.90;;;;;;6287942;22;20420;-68
2021/11/27 09:46:25;;;;;;;1860.13;491.20;;;5.00;99.90;;;;;;6277732;22;20491;-69
2021/11/27 09:48:56;;;;;;;1632.77;293.33;;;5.10;99.90;;;;;;6287988;22;20503;-68
2021/11/27 09:51:26;;;;;;;749.07;224.07;;;5.10;99.90;;;;;;6288334;22;20704;-68
2021/11/27 09:53:55;;;;;;;1518.60;416.87;;;5.20;99.90;;;;;;6287546;22;20403;-68
2021/11/27 09:56:26;;;;;;;1325.50;385.10;;;5.20;99.90;;;;;;6287954;22;20397;-68
2021/11/27 09:58:55;;;;;;;1698.60;442.67;;;5.20;99.90;;;;;;6250114;22;20440;-69
2021/11/27 10:01:26;;;;;;;1884.77;452.97;;;5.30;99.90;;;;;;6287859;22;20392;-68
2021/11/27 10:04:01;;;;;;;1486.23;329.97;;;5.30;99.90;;;;;;6277534;22;20436;-68
2021/11/27 10:06:32;;;;;;;1782.03;440.27;;;5.30;99.90;;;;;;6287817;22;20708;-69
2021/11/27 10:09:02;;;;;;;1597.97;375.90;;;5.40;99.90;;;;;;6250078;22;20432;-69
2021/11/27 10:11:32;;;;;;;1518.17;422.60;;;5.40;99.90;;;;;;6250009;22;20408;-69
2021/11/27 10:14:00;;;;;;;1972.90;455.37;;;5.40;99.90;;;;;;6250043;22;20478;-69
2021/11/27 10:16:31;;;;;;;1999.90;621.17;;;5.40;99.90;;;;;;6250074;22;20401;-69
2021/11/27 10:19:04;;;;;;;1999.90;628.93;;;5.40;99.90;;;;;;6287304;22;20432;-69
2021/11/27 10:21:33;;;;;;;1999.90;602.77;;;5.40;99.90;;;;;;6287760;22;20373;-69
2021/11/27 10:24:17;;;;;;;1680.77;429.43;;;5.40;99.90;;;;;;6287224;22;20424;-69
2021/11/27 10:26:47;;;;;;;1639.20;402.13;;;5.50;99.90;;;;;;6249978;22;20420;-69
2021/11/27 10:29:19;;;;;;;1999.90;618.90;;;5.50;99.90;;;;;;6249731;22;20519;-69
2021/11/27 10:31:49;;;;;;;1999.90;655.97;;;5.50;99.90;;;;;;6288010;22;20832;-69
2021/11/27 10:34:19;;;;;;;1999.90;634.20;;;5.50;99.90;;;;;;6276903;22;20401;-69
2021/11/27 10:37:04;;;;;;;1999.90;580.47;;;5.50;99.90;;;;;;6249797;22;20401;-69
2021/11/27 10:39:32;;;;;;;1794.57;723.77;;;5.50;99.90;;;;;;6287147;22;20453;-69
2021/11/27 10:42:10;;;;;;;1725.13;432.57;;;5.50;99.90;;;;;;6249791;22;20400;-69
2021/11/27 10:44:39;;;;;;;1891.80;523.13;;;5.50;99.90;;;;;;6249698;22;20424;-69
2021/11/27 10:47:10;;;;;;;1868.63;449.77;;;5.50;99.90;;;;;;6287163;22;20467;-69
2021/11/27 10:49:39;;;;;;;1987.87;579.23;;;5.50;99.90;;;;;;6249669;22;20871;-69
2021/11/27 10:52:09;;;;;;;1089.23;258.33;;;5.60;99.90;;;;;;6249744;22;20416;-69
2021/11/27 10:54:45;;;;;;;1897.77;485.23;;;5.50;99.90;;;;;;6287127;22;20405;-69
2021/11/27 10:57:34;;;;;;;1999.90;652.67;;;5.60;99.90;;;;;;6287489;22;20464;-69
2021/11/27 11:00:07;;;;;;;1999.90;636.10;;;5.60;99.90;;;;;;6287054;22;20421;-69
2021/11/27 11:02:37;;;;;;;1916.27;519.50;;;5.60;99.90;;;;;;6287420;22;20432;-69
2021/11/27 11:05:10;;;;;;;1999.90;607.50;;;5.60;99.90;;;;;;6286939;22;20429;-69
2021/11/27 11:07:39;;;;;;;1999.90;625.13;;;5.60;99.90;;;;;;6249640;22;20408;-69
2021/11/27 11:10:23;;;;;;;1999.90;551.57;;;5.60;99.90;;;;;;6286883;22;20903;-69
2021/11/27 11:12:56;;;;;;;1999.90;576.73;;;5.60;99.90;;;;;;6273763;22;20471;-69
2021/11/27 11:15:26;;;;;;;1948.83;504.03;;;5.60;99.90;;;;;;6287679;22;20369;-69
2021/11/27 11:18:09;;;;;;;1999.90;620.23;;;5.60;99.90;;;;;;6287149;22;20497;-69
2021/11/27 11:20:39;;;;;;;1999.90;575.77;;;5.50;99.90;;;;;;6287288;22;20441;-69
2021/11/27 11:23:10;;;;;;;1991.87;550.67;;;5.50;99.90;;;;;;6276939;22;20397;-69
2021/11/27 11:25:53;;;;;;;1999.90;556.30;;;5.50;99.90;;;;;;6287212;22;20563;-68
2021/11/27 11:28:23;;;;;;;1999.90;999.90;;;5.50;99.90;;;;;;6276940;22;20416;-68
2021/11/27 11:30:55;;;;;;;1952.47;565.00;;;5.50;99.90;;;;;;6277066;22;20393;-68
2021/11/27 11:33:25;;;;;;;1999.90;745.13;;;5.50;99.90;;;;;;6286837;22;20836;-69
2021/11/27 11:35:53;;;;;;;1999.90;596.10;;;5.50;99.90;;;;;;6249548;22;20409;-69
2021/11/27 11:38:21;;;;;;;1999.90;656.50;;;5.50;99.90;;;;;;6276781;22;20492;-69
2021/11/27 11:40:52;;;;;;;1999.90;581.77;;;5.50;99.90;;;;;;6277030;22;20415;-69
2021/11/27 11:43:22;;;;;;;1999.90;539.80;;;5.50;99.90;;;;;;6287257;22;20378;-70
2021/11/27 11:45:51;;;;;;;1999.90;547.80;;;5.50;99.90;;;;;;6287104;22;20499;-70
2021/11/27 11:48:25;;;;;;;1990.63;534.53;;;5.50;99.90;;;;;;6250362;22;20440;-71
2021/11/27 11:51:03;;;;;;;1999.90;547.83;;;5.50;99.90;;;;;;6251557;22;20396;-71
2021/11/27 11:53:39;;;;;;;1999.90;552.20;;;5.50;99.90;;;;;;6289239;22;20379;-71
2021/11/27 11:56:09;;;;;;;1999.90;999.90;;;5.50;99.90;;;;;;6251425;22;20408;-70
2021/11/27 11:58:41;;;;;;;1999.90;598.87;;;5.50;99.90;;;;;;6288662;22;20411;-70
2021/11/27 12:01:16;;;;;;;1999.90;481.87;;;5.50;99.90;;;;;;6251283;22;20429;-68
2021/11/27 12:03:47;;;;;;;1996.83;534.03;;;5.50;99.90;;;;;;6289510;22;20384;-68
2021/11/27 12:06:23;;;;;;;1971.30;527.40;;;5.50;99.90;;;;;;6289113;22;20448;-69
2021/11/27 12:09:14;;;;;;;1999.90;606.73;;;5.50;99.90;;;;;;6251700;22;20527;-69
2021/11/27 12:12:05;;;;;;;1999.90;614.13;;;5.50;99.90;;;;;;6250087;22;20404;-69
2021/11/27 12:15:08;;;;;;;1999.90;587.03;;;5.50;99.90;;;;;;6278616;22;20468;-69
2021/11/27 12:18:04;;;;;;;1999.90;999.90;;;5.50;99.90;;;;;;6251028;22;20434;-69
2021/11/27 12:20:44;;;;;;;1999.90;626.73;;;5.50;99.90;;;;;;6278840;22;20468;-69
2021/11/27 12:23:35;;;;;;;1999.90;626.20;;;5.50;99.90;;;;;;6278623;22;20389;-69
2021/11/27 12:26:19;;;;;;;1999.90;999.90;;;5.50;99.90;;;;;;6288375;22;20464;-69
2021/11/27 12:29:13;;;;;;;1999.90;700.70;;;5.50;99.90;;;;;;6278537;22;20459;-69
2021/11/27 12:32:09;;;;;;;1999.90;999.90;;;5.50;99.90;;;;;;6288818;22;20855;-69